TimeMST,TemperatureF,Dew PointF,Humidity,Sea Level PressureIn,VisibilityMPH,Wind Direction,Wind SpeedMPH,Gust SpeedMPH,PrecipitationIn,Events,Conditions,WindDirDegrees,DateUTC
12:53 AM,37.9,27.0,65,30.17,10.0,SW,16.1,-,N/A,,Clear,220,2013-02-16 07:53:00
1:53 AM,37.9,27.0,65,30.14,10.0,SW,12.7,-,N/A,,Clear,220,2013-02-16 08:53:00
2:53 AM,37.9,26.1,62,30.12,10.0,SSW,12.7,-,N/A,,Clear,210,2013-02-16 09:53:00
3:53 AM,39.9,26.1,58,30.09,10.0,SW,18.4,-,N/A,,Clear,220,2013-02-16 10:53:00
4:53 AM,39.9,26.1,58,30.08,10.0,SW,18.4,-,N/A,,Clear,220,2013-02-16 11:53:00
5:53 AM,39.0,26.1,60,30.09,10.0,SW,15.0,-,N/A,,Clear,220,2013-02-16 12:53:00
6:53 AM,41.0,25.0,53,30.07,10.0,SW,19.6,-,N/A,,Clear,220,2013-02-16 13:53:00
7:53 AM,42.1,25.0,51,30.06,10.0,SW,23.0,-,N/A,,Clear,220,2013-02-16 14:53:00
8:53 AM,45.0,26.1,48,30.05,10.0,SW,20.7,27.6,N/A,,Scattered Clouds,220,2013-02-16 15:53:00
9:53 AM,48.0,26.1,42,30.03,10.0,SW,23.0,34.5,N/A,,Clear,220,2013-02-16 16:53:00
10:53 AM,51.1,26.1,38,30.01,10.0,SW,26.5,35.7,N/A,,Clear,220,2013-02-16 17:53:00
11:53 AM,52.0,26.1,37,29.98,10.0,SW,24.2,33.4,N/A,,Clear,220,2013-02-16 18:53:00
12:53 PM,53.1,25.0,34,29.95,10.0,SW,28.8,34.5,N/A,,Clear,230,2013-02-16 19:53:00
1:53 PM,51.1,26.1,38,29.92,10.0,SW,17.3,-,N/A,,Clear,220,2013-02-16 20:53:00
2:53 PM,52.0,26.1,37,29.88,10.0,SW,26.5,31.1,N/A,,Clear,230,2013-02-16 21:53:00
3:53 PM,51.1,27.0,39,29.84,10.0,WSW,25.3,29.9,N/A,,Clear,240,2013-02-16 22:53:00
4:53 PM,52.0,26.1,37,29.84,10.0,SW,20.7,32.2,N/A,,Clear,230,2013-02-16 23:53:00
5:53 PM,48.0,26.1,42,29.84,10.0,SW,27.6,32.2,N/A,,Clear,230,2013-02-17 00:53:00
6:53 PM,44.1,25.0,47,29.83,10.0,SW,15.0,-,N/A,,Clear,220,2013-02-17 01:53:00
7:53 PM,42.1,25.0,51,29.78,10.0,SW,15.0,-,N/A,,Clear,220,2013-02-17 02:53:00
8:53 PM,43.0,25.0,49,29.74,10.0,SW,17.3,-,N/A,,Scattered Clouds,230,2013-02-17 03:53:00
9:53 PM,41.0,28.0,60,29.70,10.0,WSW,15.0,-,N/A,,Partly Cloudy,240,2013-02-17 04:53:00
10:53 PM,41.0,28.9,62,29.69,10.0,SW,15.0,-,N/A,,Clear,220,2013-02-17 05:53:00
11:53 PM,39.9,30.9,70,29.73,10.0,WNW,17.3,-,0.00,Rain,Light Rain,290,2013-02-17 06:53:00